sensor_id;sensor_type;location;lat;lon;timestamp;temperature;humidity
3017;DHT22;1518;52.408;13.060;2023-03-23T00:02:18;19.20;72.70
3017;DHT22;1518;52.408;13.060;2023-03-23T00:05:06;19.20;72.70
3017;DHT22;1518;52.408;13.060;2023-03-23T00:07:53;19.20;72.70
3017;DHT22;1518;52.408;13.060;2023-03-23T00:10:41;19.20;72.70
3017;DHT22;1518;52.408;13.060;2023-03-23T00:13:28;19.20;72.70
3017;DHT22;1518;52.408;13.060;2023-03-23T00:16:18;19.00;88.90
3017;DHT22;1518;52.408;13.060;2023-03-23T00:19:07;19.10;72.50
3017;DHT22;1518;52.408;13.060;2023-03-23T00:21:54;19.10;72.50
3017;DHT22;1518;52.408;13.060;2023-03-23T00:24:42;19.10;72.50
3017;DHT22;1518;52.408;13.060;2023-03-23T00:27:29;19.10;72.50
3017;DHT22;1518;52.408;13.060;2023-03-23T00:30:16;19.10;72.50
3017;DHT22;1518;52.408;13.060;2023-03-23T00:33:05;19.10;72.50
3017;DHT22;1518;52.408;13.060;2023-03-23T00:35:52;19.10;72.40
3017;DHT22;1518;52.408;13.060;2023-03-23T00:38:40;19.10;72.40
3017;DHT22;1518;52.408;13.060;2023-03-23T00:41:30;19.10;72.40
3017;DHT22;1518;52.408;13.060;2023-03-23T00:44:18;19.10;72.50
3017;DHT22;1518;52.408;13.060;2023-03-23T00:47:10;19.10;72.50
3017;DHT22;1518;52.408;13.060;2023-03-23T00:49:59;19.10;72.50
3017;DHT22;1518;52.408;13.060;2023-03-23T00:52:46;19.00;72.40
3017;DHT22;1518;52.408;13.060;2023-03-23T00:55:35;19.00;72.40
3017;DHT22;1518;52.408;13.060;2023-03-23T00:58:22;19.10;72.50
3017;DHT22;1518;52.408;13.060;2023-03-23T01:01:09;19.10;72.50
3017;DHT22;1518;52.408;13.060;2023-03-23T01:03:58;19.10;72.50
3017;DHT22;1518;52.408;13.060;2023-03-23T01:06:49;19.00;72.40
3017;DHT22;1518;52.408;13.060;2023-03-23T01:09:37;19.00;72.30
3017;DHT22;1518;52.408;13.060;2023-03-23T01:12:25;19.00;72.40
3017;DHT22;1518;52.408;13.060;2023-03-23T01:15:14;18.90;72.40
3017;DHT22;1518;52.408;13.060;2023-03-23T01:18:02;18.90;72.40
3017;DHT22;1518;52.408;13.060;2023-03-23T01:20:49;18.90;73.10
3017;DHT22;1518;52.408;13.060;2023-03-23T01:23:38;18.90;72.50
3017;DHT22;1518;52.408;13.060;2023-03-23T01:26:27;18.90;72.40
3017;DHT22;1518;52.408;13.060;2023-03-23T01:29:14;18.90;72.50
3017;DHT22;1518;52.408;13.060;2023-03-23T01:32:01;18.90;73.20
3017;DHT22;1518;52.408;13.060;2023-03-23T01:34:48;18.90;72.50
3017;DHT22;1518;52.408;13.060;2023-03-23T01:37:35;18.90;72.40
3017;DHT22;1518;52.408;13.060;2023-03-23T01:40:26;18.80;72.70
3017;DHT22;1518;52.408;13.060;2023-03-23T01:43:15;18.80;72.40
3017;DHT22;1518;52.408;13.060;2023-03-23T01:46:02;18.70;88.80
3017;DHT22;1518;52.408;13.060;2023-03-23T01:48:50;18.80;72.60
3017;DHT22;1518;52.408;13.060;2023-03-23T01:51:39;18.80;72.70
3017;DHT22;1518;52.408;13.060;2023-03-23T01:54:28;18.80;72.70
3017;DHT22;1518;52.408;13.060;2023-03-23T01:57:19;18.80;72.70
3017;DHT22;1518;52.408;13.060;2023-03-23T02:00:09;18.80;72.70
3017;DHT22;1518;52.408;13.060;2023-03-23T02:03:00;18.80;72.70
3017;DHT22;1518;52.408;13.060;2023-03-23T02:05:47;18.80;72.80
3017;DHT22;1518;52.408;13.060;2023-03-23T02:08:35;18.80;72.60
3017;DHT22;1518;52.408;13.060;2023-03-23T02:11:22;18.80;72.70
3017;DHT22;1518;52.408;13.060;2023-03-23T02:14:11;18.80;72.60
3017;DHT22;1518;52.408;13.060;2023-03-23T02:17:04;18.80;72.50
3017;DHT22;1518;52.408;13.060;2023-03-23T02:20:03;18.80;72.50
3017;DHT22;1518;52.408;13.060;2023-03-23T02:23:13;18.80;72.40
3017;DHT22;1518;52.408;13.060;2023-03-23T02:26:16;18.60;83.30
3017;DHT22;1518;52.408;13.060;2023-03-23T02:32:53;18.90;72.50
3017;DHT22;1518;52.408;13.060;2023-03-23T02:35:51;18.70;72.30
3017;DHT22;1518;52.408;13.060;2023-03-23T02:38:44;18.70;72.20
3017;DHT22;1518;52.408;13.060;2023-03-23T02:41:39;18.70;72.30
3017;DHT22;1518;52.408;13.060;2023-03-23T02:44:29;18.70;72.30
3017;DHT22;1518;52.408;13.060;2023-03-23T02:47:20;18.70;72.30
3017;DHT22;1518;52.408;13.060;2023-03-23T02:50:11;18.70;72.20
3017;DHT22;1518;52.408;13.060;2023-03-23T02:53:03;18.70;72.30
3017;DHT22;1518;52.408;13.060;2023-03-23T02:55:54;18.70;72.30
3017;DHT22;1518;52.408;13.060;2023-03-23T02:58:42;18.70;72.40
3017;DHT22;1518;52.408;13.060;2023-03-23T03:01:50;18.70;72.20
3017;DHT22;1518;52.408;13.060;2023-03-23T03:04:42;18.70;72.20
3017;DHT22;1518;52.408;13.060;2023-03-23T03:07:56;18.70;72.20
3017;DHT22;1518;52.408;13.060;2023-03-23T03:10:50;18.70;72.80
3017;DHT22;1518;52.408;13.060;2023-03-23T03:13:44;18.70;72.10
3017;DHT22;1518;52.408;13.060;2023-03-23T03:16:36;18.70;72.10
3017;DHT22;1518;52.408;13.060;2023-03-23T03:19:26;18.70;72.10
3017;DHT22;1518;52.408;13.060;2023-03-23T03:22:16;18.70;72.10
3017;DHT22;1518;52.408;13.060;2023-03-23T03:25:06;18.70;72.20
3017;DHT22;1518;52.408;13.060;2023-03-23T03:27:55;18.70;72.20
3017;DHT22;1518;52.408;13.060;2023-03-23T03:30:44;18.70;72.20
3017;DHT22;1518;52.408;13.060;2023-03-23T03:33:32;18.80;72.30
3017;DHT22;1518;52.408;13.060;2023-03-23T03:36:24;18.70;72.10
3017;DHT22;1518;52.408;13.060;2023-03-23T03:39:14;18.70;72.00
3017;DHT22;1518;52.408;13.060;2023-03-23T03:42:03;18.70;72.10
3017;DHT22;1518;52.408;13.060;2023-03-23T03:44:51;18.70;72.20
3017;DHT22;1518;52.408;13.060;2023-03-23T03:47:39;18.80;72.50
3017;DHT22;1518;52.408;13.060;2023-03-23T03:50:26;18.70;72.60
3017;DHT22;1518;52.408;13.060;2023-03-23T03:53:13;18.70;72.70
3017;DHT22;1518;52.408;13.060;2023-03-23T03:56:00;18.60;84.00
3017;DHT22;1518;52.408;13.060;2023-03-23T03:58:47;18.60;73.20
3017;DHT22;1518;52.408;13.060;2023-03-23T04:01:36;18.70;73.30
3017;DHT22;1518;52.408;13.060;2023-03-23T04:04:23;18.70;73.40
3017;DHT22;1518;52.408;13.060;2023-03-23T04:07:10;18.70;73.50
3017;DHT22;1518;52.408;13.060;2023-03-23T04:09:59;18.70;73.50
3017;DHT22;1518;52.408;13.060;2023-03-23T04:12:46;18.70;73.50
3017;DHT22;1518;52.408;13.060;2023-03-23T04:15:33;18.60;73.40
3017;DHT22;1518;52.408;13.060;2023-03-23T04:18:21;18.70;73.60
3017;DHT22;1518;52.408;13.060;2023-03-23T04:21:10;18.70;73.60
3017;DHT22;1518;52.408;13.060;2023-03-23T04:23:57;18.70;73.90
3017;DHT22;1518;52.408;13.060;2023-03-23T04:26:45;18.70;73.80
3017;DHT22;1518;52.408;13.060;2023-03-23T04:29:32;18.70;73.90
3017;DHT22;1518;52.408;13.060;2023-03-23T04:32:19;18.70;73.90
3017;DHT22;1518;52.408;13.060;2023-03-23T04:35:09;18.70;73.80
3017;DHT22;1518;52.408;13.060;2023-03-23T04:37:57;18.70;73.90
3017;DHT22;1518;52.408;13.060;2023-03-23T04:40:44;18.70;74.10
3017;DHT22;1518;52.408;13.060;2023-03-23T04:43:31;18.70;74.10
3017;DHT22;1518;52.408;13.060;2023-03-23T04:46:27;18.70;74.00
3017;DHT22;1518;52.408;13.060;2023-03-23T04:49:15;18.70;74.00
3017;DHT22;1518;52.408;13.060;2023-03-23T04:52:07;18.70;74.00
3017;DHT22;1518;52.408;13.060;2023-03-23T04:54:54;18.70;74.00
3017;DHT22;1518;52.408;13.060;2023-03-23T04:57:42;18.60;73.80
3017;DHT22;1518;52.408;13.060;2023-03-23T05:00:29;18.60;74.60
3017;DHT22;1518;52.408;13.060;2023-03-23T05:03:17;18.60;74.20
3017;DHT22;1518;52.408;13.060;2023-03-23T05:06:04;18.90;85.50
3017;DHT22;1518;52.408;13.060;2023-03-23T05:08:53;18.70;74.30
3017;DHT22;1518;52.408;13.060;2023-03-23T05:11:40;18.60;74.50
3017;DHT22;1518;52.408;13.060;2023-03-23T05:14:27;18.60;74.80
3017;DHT22;1518;52.408;13.060;2023-03-23T05:17:14;18.60;74.90
3017;DHT22;1518;52.408;13.060;2023-03-23T05:20:04;18.60;75.10
3017;DHT22;1518;52.408;13.060;2023-03-23T05:22:53;18.60;75.10
3017;DHT22;1518;52.408;13.060;2023-03-23T05:25:43;18.60;75.20
3017;DHT22;1518;52.408;13.060;2023-03-23T05:28:33;18.60;75.10
3017;DHT22;1518;52.408;13.060;2023-03-23T05:31:20;18.60;75.20
3017;DHT22;1518;52.408;13.060;2023-03-23T05:34:07;18.60;75.20
3017;DHT22;1518;52.408;13.060;2023-03-23T05:36:54;18.60;75.40
3017;DHT22;1518;52.408;13.060;2023-03-23T05:39:43;18.60;75.60
3017;DHT22;1518;52.408;13.060;2023-03-23T05:42:32;18.60;75.60
3017;DHT22;1518;52.408;13.060;2023-03-23T05:45:20;18.60;75.90
3017;DHT22;1518;52.408;13.060;2023-03-23T05:48:07;18.60;76.00
3017;DHT22;1518;52.408;13.060;2023-03-23T05:50:54;18.60;76.30
3017;DHT22;1518;52.408;13.060;2023-03-23T05:53:41;18.60;76.20
3017;DHT22;1518;52.408;13.060;2023-03-23T05:56:28;18.60;76.30
3017;DHT22;1518;52.408;13.060;2023-03-23T05:59:17;18.60;76.70
3017;DHT22;1518;52.408;13.060;2023-03-23T06:02:04;18.60;76.90
3017;DHT22;1518;52.408;13.060;2023-03-23T06:04:51;18.60;76.90
3017;DHT22;1518;52.408;13.060;2023-03-23T06:07:43;18.60;77.00
3017;DHT22;1518;52.408;13.060;2023-03-23T06:10:30;18.60;77.30
3017;DHT22;1518;52.408;13.060;2023-03-23T06:13:18;18.50;77.50
3017;DHT22;1518;52.408;13.060;2023-03-23T06:16:07;18.30;91.70
3017;DHT22;1518;52.408;13.060;2023-03-23T06:18:55;18.50;78.00
3017;DHT22;1518;52.408;13.060;2023-03-23T06:21:43;18.50;77.70
3017;DHT22;1518;52.408;13.060;2023-03-23T06:24:30;18.50;77.70
3017;DHT22;1518;52.408;13.060;2023-03-23T06:27:18;18.50;77.70
3017;DHT22;1518;52.408;13.060;2023-03-23T06:30:07;18.50;78.00
3017;DHT22;1518;52.408;13.060;2023-03-23T06:32:55;18.50;78.20
3017;DHT22;1518;52.408;13.060;2023-03-23T06:35:43;18.50;78.60
3017;DHT22;1518;52.408;13.060;2023-03-23T06:38:30;18.40;78.30
3017;DHT22;1518;52.408;13.060;2023-03-23T06:41:17;18.40;78.50
3017;DHT22;1518;52.408;13.060;2023-03-23T06:44:05;18.50;78.50
3017;DHT22;1518;52.408;13.060;2023-03-23T06:46:52;18.50;78.60
3017;DHT22;1518;52.408;13.060;2023-03-23T06:49:40;18.50;78.40
3017;DHT22;1518;52.408;13.060;2023-03-23T06:52:28;18.50;78.30
3017;DHT22;1518;52.408;13.060;2023-03-23T06:55:15;18.50;78.40
3017;DHT22;1518;52.408;13.060;2023-03-23T06:58:03;18.50;78.30
3017;DHT22;1518;52.408;13.060;2023-03-23T07:00:53;18.50;78.70
3017;DHT22;1518;52.408;13.060;2023-03-23T07:03:41;18.50;78.20
3017;DHT22;1518;52.408;13.060;2023-03-23T07:06:29;18.50;78.00
3017;DHT22;1518;52.408;13.060;2023-03-23T07:09:17;18.50;78.40
3017;DHT22;1518;52.408;13.060;2023-03-23T07:12:05;18.50;78.20
3017;DHT22;1518;52.408;13.060;2023-03-23T07:14:52;18.60;77.80
3017;DHT22;1518;52.408;13.060;2023-03-23T07:17:39;18.50;77.70
3017;DHT22;1518;52.408;13.060;2023-03-23T07:20:26;18.50;78.10
3017;DHT22;1518;52.408;13.060;2023-03-23T07:23:15;18.60;78.60
3017;DHT22;1518;52.408;13.060;2023-03-23T07:26:02;18.20;88.50
3017;DHT22;1518;52.408;13.060;2023-03-23T07:28:49;18.60;78.10
3017;DHT22;1518;52.408;13.060;2023-03-23T07:31:37;18.50;78.50
3017;DHT22;1518;52.408;13.060;2023-03-23T07:34:24;18.60;78.10
3017;DHT22;1518;52.408;13.060;2023-03-23T07:37:11;18.60;79.00
3017;DHT22;1518;52.408;13.060;2023-03-23T07:39:59;18.50;79.20
3017;DHT22;1518;52.408;13.060;2023-03-23T07:42:52;18.50;79.20
3017;DHT22;1518;52.408;13.060;2023-03-23T07:45:39;18.50;79.40
3017;DHT22;1518;52.408;13.060;2023-03-23T07:48:26;18.50;79.50
3017;DHT22;1518;52.408;13.060;2023-03-23T07:51:13;18.60;79.40
3017;DHT22;1518;52.408;13.060;2023-03-23T07:54:02;18.40;79.40
3017;DHT22;1518;52.408;13.060;2023-03-23T07:56:51;18.50;79.60
3017;DHT22;1518;52.408;13.060;2023-03-23T07:59:38;18.50;79.20
3017;DHT22;1518;52.408;13.060;2023-03-23T08:02:25;18.50;79.10
3017;DHT22;1518;52.408;13.060;2023-03-23T08:05:13;18.60;79.20
3017;DHT22;1518;52.408;13.060;2023-03-23T08:08:00;18.60;79.30
3017;DHT22;1518;52.408;13.060;2023-03-23T08:10:48;18.50;78.70
3017;DHT22;1518;52.408;13.060;2023-03-23T08:13:36;18.60;78.90
3017;DHT22;1518;52.408;13.060;2023-03-23T08:16:24;18.60;79.10
3017;DHT22;1518;52.408;13.060;2023-03-23T08:19:11;18.60;78.60
3017;DHT22;1518;52.408;13.060;2023-03-23T08:21:58;18.60;78.40
3017;DHT22;1518;52.408;13.060;2023-03-23T08:24:45;18.60;79.10
3017;DHT22;1518;52.408;13.060;2023-03-23T08:27:32;18.60;79.40
3017;DHT22;1518;52.408;13.060;2023-03-23T08:30:21;18.60;79.20
3017;DHT22;1518;52.408;13.060;2023-03-23T08:33:09;18.60;79.90
3017;DHT22;1518;52.408;13.060;2023-03-23T08:35:58;18.50;80.00
3017;DHT22;1518;52.408;13.060;2023-03-23T08:38:46;18.60;79.50
3017;DHT22;1518;52.408;13.060;2023-03-23T08:41:33;18.60;80.20
3017;DHT22;1518;52.408;13.060;2023-03-23T08:44:20;18.60;79.00
3017;DHT22;1518;52.408;13.060;2023-03-23T08:47:09;18.60;79.60
3017;DHT22;1518;52.408;13.060;2023-03-23T08:49:56;18.60;80.20
3017;DHT22;1518;52.408;13.060;2023-03-23T08:52:43;18.50;80.20
3017;DHT22;1518;52.408;13.060;2023-03-23T08:55:30;18.60;80.50
3017;DHT22;1518;52.408;13.060;2023-03-23T08:58:17;18.60;80.40
3017;DHT22;1518;52.408;13.060;2023-03-23T09:01:05;18.60;80.60
3017;DHT22;1518;52.408;13.060;2023-03-23T09:03:54;18.60;80.40
3017;DHT22;1518;52.408;13.060;2023-03-23T09:06:41;18.50;80.40
3017;DHT22;1518;52.408;13.060;2023-03-23T09:09:28;18.50;80.10
3017;DHT22;1518;52.408;13.060;2023-03-23T09:12:15;18.60;80.10
3017;DHT22;1518;52.408;13.060;2023-03-23T09:15:03;18.60;80.10
3017;DHT22;1518;52.408;13.060;2023-03-23T09:17:54;18.60;80.00
3017;DHT22;1518;52.408;13.060;2023-03-23T09:20:43;18.60;80.00
3017;DHT22;1518;52.408;13.060;2023-03-23T09:23:31;18.60;79.70
3017;DHT22;1518;52.408;13.060;2023-03-23T09:26:18;18.80;93.10
3017;DHT22;1518;52.408;13.060;2023-03-23T09:29:05;18.70;79.70
3017;DHT22;1518;52.408;13.060;2023-03-23T09:31:53;18.70;79.30
3017;DHT22;1518;52.408;13.060;2023-03-23T09:34:40;18.70;79.60
3017;DHT22;1518;52.408;13.060;2023-03-23T09:37:28;18.70;79.50
3017;DHT22;1518;52.408;13.060;2023-03-23T09:40:17;19.30;80.50
3017;DHT22;1518;52.408;13.060;2023-03-23T09:43:18;18.70;80.20
3017;DHT22;1518;52.408;13.060;2023-03-23T09:46:23;18.90;90.40
3017;DHT22;1518;52.408;13.060;2023-03-23T09:49:17;18.70;80.30
3017;DHT22;1518;52.408;13.060;2023-03-23T09:52:10;18.70;80.40
3017;DHT22;1518;52.408;13.060;2023-03-23T09:55:00;18.70;80.30
3017;DHT22;1518;52.408;13.060;2023-03-23T09:57:52;18.70;80.20
3017;DHT22;1518;52.408;13.060;2023-03-23T10:00:47;18.70;79.80
3017;DHT22;1518;52.408;13.060;2023-03-23T10:03:38;18.70;80.10
3017;DHT22;1518;52.408;13.060;2023-03-23T10:06:26;18.70;80.00
3017;DHT22;1518;52.408;13.060;2023-03-23T10:09:15;18.70;80.00
3017;DHT22;1518;52.408;13.060;2023-03-23T10:12:13;18.70;80.30
3017;DHT22;1518;52.408;13.060;2023-03-23T10:15:10;18.70;80.20
3017;DHT22;1518;52.408;13.060;2023-03-23T10:18:00;18.70;79.90
3017;DHT22;1518;52.408;13.060;2023-03-23T10:20:50;18.70;80.00
3017;DHT22;1518;52.408;13.060;2023-03-23T10:23:45;18.70;80.20
3017;DHT22;1518;52.408;13.060;2023-03-23T10:26:44;18.80;80.30
3017;DHT22;1518;52.408;13.060;2023-03-23T10:29:37;18.80;80.00
3017;DHT22;1518;52.408;13.060;2023-03-23T10:32:40;18.80;79.70
3017;DHT22;1518;52.408;13.060;2023-03-23T10:35:34;18.80;79.80
3017;DHT22;1518;52.408;13.060;2023-03-23T10:38:25;18.90;79.60
3017;DHT22;1518;52.408;13.060;2023-03-23T10:41:14;18.90;79.60
3017;DHT22;1518;52.408;13.060;2023-03-23T10:44:09;18.90;79.70
3017;DHT22;1518;52.408;13.060;2023-03-23T10:47:00;18.90;79.90
3017;DHT22;1518;52.408;13.060;2023-03-23T10:49:50;18.80;80.50
3017;DHT22;1518;52.408;13.060;2023-03-23T10:52:40;18.80;79.70
3017;DHT22;1518;52.408;13.060;2023-03-23T10:55:36;18.90;80.00
3017;DHT22;1518;52.408;13.060;2023-03-23T10:58:26;18.80;80.00
3017;DHT22;1518;52.408;13.060;2023-03-23T11:01:18;18.80;79.70
3017;DHT22;1518;52.408;13.060;2023-03-23T11:04:12;18.80;79.60
3017;DHT22;1518;52.408;13.060;2023-03-23T11:07:01;18.80;79.60
3017;DHT22;1518;52.408;13.060;2023-03-23T11:09:54;18.80;79.50
3017;DHT22;1518;52.408;13.060;2023-03-23T11:12:44;18.80;79.50
3017;DHT22;1518;52.408;13.060;2023-03-23T11:15:34;18.80;79.60
3017;DHT22;1518;52.408;13.060;2023-03-23T11:18:24;18.80;79.70
3017;DHT22;1518;52.408;13.060;2023-03-23T11:21:14;18.80;79.80
3017;DHT22;1518;52.408;13.060;2023-03-23T11:24:02;18.70;79.50
3017;DHT22;1518;52.408;13.060;2023-03-23T11:26:50;18.80;79.70
3017;DHT22;1518;52.408;13.060;2023-03-23T11:29:46;18.80;79.70
3017;DHT22;1518;52.408;13.060;2023-03-23T11:32:34;18.80;79.60
3017;DHT22;1518;52.408;13.060;2023-03-23T11:35:25;18.80;79.60
3017;DHT22;1518;52.408;13.060;2023-03-23T11:38:18;18.90;79.60
3017;DHT22;1518;52.408;13.060;2023-03-23T11:41:10;18.80;79.60
3017;DHT22;1518;52.408;13.060;2023-03-23T11:44:07;18.80;79.50
3017;DHT22;1518;52.408;13.060;2023-03-23T11:47:00;18.90;79.50
3017;DHT22;1518;52.408;13.060;2023-03-23T11:49:53;18.90;79.60
3017;DHT22;1518;52.408;13.060;2023-03-23T11:52:46;18.90;79.60
3017;DHT22;1518;52.408;13.060;2023-03-23T11:55:50;18.90;79.40
3017;DHT22;1518;52.408;13.060;2023-03-23T11:58:38;18.90;79.40
3017;DHT22;1518;52.408;13.060;2023-03-23T12:01:42;18.90;78.90
3017;DHT22;1518;52.408;13.060;2023-03-23T12:04:37;18.90;79.30
3017;DHT22;1518;52.408;13.060;2023-03-23T12:07:45;18.90;79.30
3017;DHT22;1518;52.408;13.060;2023-03-23T12:10:41;18.90;79.50
3017;DHT22;1518;52.408;13.060;2023-03-23T12:13:40;18.90;79.40
3017;DHT22;1518;52.408;13.060;2023-03-23T12:16:54;18.90;79.40
3017;DHT22;1518;52.408;13.060;2023-03-23T12:19:51;18.90;79.40
3017;DHT22;1518;52.408;13.060;2023-03-23T12:22:49;18.90;79.10
3017;DHT22;1518;52.408;13.060;2023-03-23T12:25:53;18.90;79.00
3017;DHT22;1518;52.408;13.060;2023-03-23T12:28:55;18.90;79.20
3017;DHT22;1518;52.408;13.060;2023-03-23T12:31:56;18.90;79.30
3017;DHT22;1518;52.408;13.060;2023-03-23T12:34:50;18.90;79.20
3017;DHT22;1518;52.408;13.060;2023-03-23T12:37:48;18.90;79.40
3017;DHT22;1518;52.408;13.060;2023-03-23T12:40:55;18.90;79.20
3017;DHT22;1518;52.408;13.060;2023-03-23T12:43:50;18.90;79.10
3017;DHT22;1518;52.408;13.060;2023-03-23T12:46:55;18.90;79.00
3017;DHT22;1518;52.408;13.060;2023-03-23T12:49:49;18.90;78.80
3017;DHT22;1518;52.408;13.060;2023-03-23T12:52:41;18.90;78.90
3017;DHT22;1518;52.408;13.060;2023-03-23T12:55:36;19.00;78.90
3017;DHT22;1518;52.408;13.060;2023-03-23T12:58:28;19.00;78.80
3017;DHT22;1518;52.408;13.060;2023-03-23T13:01:19;18.90;78.80
3017;DHT22;1518;52.408;13.060;2023-03-23T13:04:11;19.00;78.70
3017;DHT22;1518;52.408;13.060;2023-03-23T13:07:00;19.00;78.70
3017;DHT22;1518;52.408;13.060;2023-03-23T13:09:55;18.90;78.50
3017;DHT22;1518;52.408;13.060;2023-03-23T13:12:42;19.00;78.50
3017;DHT22;1518;52.408;13.060;2023-03-23T13:15:35;19.00;78.40
3017;DHT22;1518;52.408;13.060;2023-03-23T13:18:33;19.10;78.20
3017;DHT22;1518;52.408;13.060;2023-03-23T13:21:26;19.10;77.90
3017;DHT22;1518;52.408;13.060;2023-03-23T13:24:21;19.10;77.70
3017;DHT22;1518;52.408;13.060;2023-03-23T13:27:10;19.10;77.70
3017;DHT22;1518;52.408;13.060;2023-03-23T13:29:58;19.10;77.70
3017;DHT22;1518;52.408;13.060;2023-03-23T13:32:46;19.10;77.70
3017;DHT22;1518;52.408;13.060;2023-03-23T13:35:36;19.10;77.70
3017;DHT22;1518;52.408;13.060;2023-03-23T13:38:26;19.10;77.70
3017;DHT22;1518;52.408;13.060;2023-03-23T13:41:16;19.10;77.60
3017;DHT22;1518;52.408;13.060;2023-03-23T13:44:18;19.10;77.60
3017;DHT22;1518;52.408;13.060;2023-03-23T13:47:24;19.10;77.50
3017;DHT22;1518;52.408;13.060;2023-03-23T13:50:27;19.10;77.40
3017;DHT22;1518;52.408;13.060;2023-03-23T13:53:23;19.10;77.40
3017;DHT22;1518;52.408;13.060;2023-03-23T13:56:16;19.30;90.90
3017;DHT22;1518;52.408;13.060;2023-03-23T13:59:06;19.20;77.30
3017;DHT22;1518;52.408;13.060;2023-03-23T14:01:54;19.10;76.90
3017;DHT22;1518;52.408;13.060;2023-03-23T14:04:42;19.10;76.70
3017;DHT22;1518;52.408;13.060;2023-03-23T14:07:30;19.20;77.10
3017;DHT22;1518;52.408;13.060;2023-03-23T14:10:18;19.10;77.10
3017;DHT22;1518;52.408;13.060;2023-03-23T14:13:06;19.10;77.10
3017;DHT22;1518;52.408;13.060;2023-03-23T14:15:59;19.10;77.20
3017;DHT22;1518;52.408;13.060;2023-03-23T14:18:54;19.20;77.40
3017;DHT22;1518;52.408;13.060;2023-03-23T14:21:48;19.10;77.20
3017;DHT22;1518;52.408;13.060;2023-03-23T14:24:40;19.10;77.30
3017;DHT22;1518;52.408;13.060;2023-03-23T14:27:27;19.10;77.10
3017;DHT22;1518;52.408;13.060;2023-03-23T14:30:17;19.10;77.10
3017;DHT22;1518;52.408;13.060;2023-03-23T14:33:06;19.10;77.00
3017;DHT22;1518;52.408;13.060;2023-03-23T14:35:57;19.10;77.10
3017;DHT22;1518;52.408;13.060;2023-03-23T14:38:45;19.10;77.10
3017;DHT22;1518;52.408;13.060;2023-03-23T14:41:34;19.20;77.30
3017;DHT22;1518;52.408;13.060;2023-03-23T14:44:25;19.20;77.20
3017;DHT22;1518;52.408;13.060;2023-03-23T14:47:18;19.20;77.90
3017;DHT22;1518;52.408;13.060;2023-03-23T14:50:23;19.20;77.20
3017;DHT22;1518;52.408;13.060;2023-03-23T14:53:19;19.20;77.20
3017;DHT22;1518;52.408;13.060;2023-03-23T14:56:11;19.20;87.50
3017;DHT22;1518;52.408;13.060;2023-03-23T14:59:04;19.20;77.20
3017;DHT22;1518;52.408;13.060;2023-03-23T15:01:52;19.20;77.30
3017;DHT22;1518;52.408;13.060;2023-03-23T15:04:39;19.30;77.40
3017;DHT22;1518;52.408;13.060;2023-03-23T15:07:30;19.30;77.20
3017;DHT22;1518;52.408;13.060;2023-03-23T15:10:20;19.30;77.10
3017;DHT22;1518;52.408;13.060;2023-03-23T15:13:11;19.30;77.10
3017;DHT22;1518;52.408;13.060;2023-03-23T15:16:05;19.30;76.90
3017;DHT22;1518;52.408;13.060;2023-03-23T15:18:55;19.30;77.00
3017;DHT22;1518;52.408;13.060;2023-03-23T15:21:49;19.30;76.90
3017;DHT22;1518;52.408;13.060;2023-03-23T15:24:38;19.30;77.10
3017;DHT22;1518;52.408;13.060;2023-03-23T15:27:28;19.30;76.90
3017;DHT22;1518;52.408;13.060;2023-03-23T15:30:30;19.40;76.90
3017;DHT22;1518;52.408;13.060;2023-03-23T15:33:19;19.30;76.30
3017;DHT22;1518;52.408;13.060;2023-03-23T15:36:17;19.50;90.50
3017;DHT22;1518;52.408;13.060;2023-03-23T15:39:06;19.30;76.40
3017;DHT22;1518;52.408;13.060;2023-03-23T15:41:57;19.30;76.80
3017;DHT22;1518;52.408;13.060;2023-03-23T15:44:55;19.30;76.70
3017;DHT22;1518;52.408;13.060;2023-03-23T15:47:47;19.30;76.80
3017;DHT22;1518;52.408;13.060;2023-03-23T15:50:35;19.30;76.30
3017;DHT22;1518;52.408;13.060;2023-03-23T15:53:27;19.30;76.20
3017;DHT22;1518;52.408;13.060;2023-03-23T15:56:14;19.10;90.30
3017;DHT22;1518;52.408;13.060;2023-03-23T15:59:01;19.30;76.20
3017;DHT22;1518;52.408;13.060;2023-03-23T16:01:49;19.30;76.20
3017;DHT22;1518;52.408;13.060;2023-03-23T16:04:37;19.30;75.80
3017;DHT22;1518;52.408;13.060;2023-03-23T16:07:31;19.30;76.10
3017;DHT22;1518;52.408;13.060;2023-03-23T16:10:21;19.30;75.50
3017;DHT22;1518;52.408;13.060;2023-03-23T16:13:10;19.30;76.20
3017;DHT22;1518;52.408;13.060;2023-03-23T16:15:58;19.30;75.40
3017;DHT22;1518;52.408;13.060;2023-03-23T16:18:46;19.30;75.20
3017;DHT22;1518;52.408;13.060;2023-03-23T16:21:35;19.30;76.30
3017;DHT22;1518;52.408;13.060;2023-03-23T16:24:24;19.20;75.50
3017;DHT22;1518;52.408;13.060;2023-03-23T16:27:13;19.20;75.80
3017;DHT22;1518;52.408;13.060;2023-03-23T16:30:01;19.20;75.60
3017;DHT22;1518;52.408;13.060;2023-03-23T16:32:51;19.20;75.50
3017;DHT22;1518;52.408;13.060;2023-03-23T16:35:42;19.20;74.60
3017;DHT22;1518;52.408;13.060;2023-03-23T16:38:31;19.20;74.40
3017;DHT22;1518;52.408;13.060;2023-03-23T16:41:36;19.20;74.60
3017;DHT22;1518;52.408;13.060;2023-03-23T16:44:24;19.20;75.30
3017;DHT22;1518;52.408;13.060;2023-03-23T16:47:12;19.20;75.90
3017;DHT22;1518;52.408;13.060;2023-03-23T16:50:00;19.20;76.10
3017;DHT22;1518;52.408;13.060;2023-03-23T16:52:49;19.20;76.50
3017;DHT22;1518;52.408;13.060;2023-03-23T16:55:37;19.20;77.00
3017;DHT22;1518;52.408;13.060;2023-03-23T16:58:27;19.20;77.30
3017;DHT22;1518;52.408;13.060;2023-03-23T17:01:15;19.20;77.60
3017;DHT22;1518;52.408;13.060;2023-03-23T17:04:04;19.20;77.80
3017;DHT22;1518;52.408;13.060;2023-03-23T17:06:52;19.20;77.90
3017;DHT22;1518;52.408;13.060;2023-03-23T17:09:40;19.20;78.00
3017;DHT22;1518;52.408;13.060;2023-03-23T17:12:28;19.20;78.20
3017;DHT22;1518;52.408;13.060;2023-03-23T17:15:18;19.20;78.30
3017;DHT22;1518;52.408;13.060;2023-03-23T17:18:07;19.20;78.30
3017;DHT22;1518;52.408;13.060;2023-03-23T17:20:55;19.20;78.30
3017;DHT22;1518;52.408;13.060;2023-03-23T17:23:43;19.10;78.20
3017;DHT22;1518;52.408;13.060;2023-03-23T17:26:31;19.20;78.30
3017;DHT22;1518;52.408;13.060;2023-03-23T17:29:19;19.20;78.50
3017;DHT22;1518;52.408;13.060;2023-03-23T17:32:10;19.20;78.70
3017;DHT22;1518;52.408;13.060;2023-03-23T17:34:58;19.20;78.80
3017;DHT22;1518;52.408;13.060;2023-03-23T17:37:46;19.10;79.30
3017;DHT22;1518;52.408;13.060;2023-03-23T17:40:34;19.10;79.10
3017;DHT22;1518;52.408;13.060;2023-03-23T17:43:22;19.10;79.40
3017;DHT22;1518;52.408;13.060;2023-03-23T17:46:10;18.90;90.10
3017;DHT22;1518;52.408;13.060;2023-03-23T17:48:59;18.90;79.40
3017;DHT22;1518;52.408;13.060;2023-03-23T17:51:47;19.00;79.30
3017;DHT22;1518;52.408;13.060;2023-03-23T17:54:35;19.00;79.30
3017;DHT22;1518;52.408;13.060;2023-03-23T17:57:24;19.00;79.20
3017;DHT22;1518;52.408;13.060;2023-03-23T18:00:12;19.00;79.70
3017;DHT22;1518;52.408;13.060;2023-03-23T18:03:01;19.00;79.80
3017;DHT22;1518;52.408;13.060;2023-03-23T18:05:50;19.00;80.70
3017;DHT22;1518;52.408;13.060;2023-03-23T18:08:43;18.90;80.10
3017;DHT22;1518;52.408;13.060;2023-03-23T18:11:32;18.90;80.00
3017;DHT22;1518;52.408;13.060;2023-03-23T18:14:20;18.80;80.00
3017;DHT22;1518;52.408;13.060;2023-03-23T18:17:08;18.90;80.30